Time;durP1;ratioP1;P1;durP2;ratioP2;P2;SDS_P1;SDS_P2;PMS_P1;PMS_P2;Temp;Humidity;BMP_temperature;BMP_pressure;BME280_temperature;BME280_humidity;BME280_pressure;Samples;Min_cycle;Max_cycle;Signal;HPM_P1;HPM_P2
2022/09/04 00:03:54;;;;;;;7.00;5.93;;;11.20;99.90;;;;;;8348097;28;20192;-67
2022/09/04 00:08:04;;;;;;;8.83;5.40;;;11.20;1.00;;;;;;8365154;28;20681;-67
2022/09/04 00:12:07;;;;;;;6.30;5.10;;;11.20;1.00;;;;;;8340949;28;20200;-68
2022/09/04 00:16:31;;;;;;;7.77;5.07;;;11.20;1.00;;;;;;8351537;28;20261;-69
2022/09/04 00:20:39;;;;;;;6.27;4.80;;;11.20;99.90;;;;;;8348861;28;20358;-67
2022/09/04 00:24:46;;;;;;;6.13;5.47;;;11.10;99.90;;;;;;8349649;28;20302;-67
2022/09/04 00:28:52;;;;;;;8.30;6.23;;;11.00;99.90;;;;;;8350430;28;20444;-67
2022/09/04 00:33:23;;;;;;;10.77;7.97;;;11.10;99.90;;;;;;8356920;28;20188;-68
2022/09/04 00:37:32;;;;;;;8.87;7.20;;;11.20;99.90;;;;;;8350234;28;20215;-68
2022/09/04 00:41:48;;;;;;;7.27;5.17;;;11.30;99.90;;;;;;8383554;28;20218;-68
2022/09/04 00:46:12;;;;;;;7.17;5.50;;;11.20;99.90;;;;;;8365537;28;20295;-68
2022/09/04 00:50:35;;;;;;;7.03;6.03;;;11.00;47.70;;;;;;8354280;28;20186;-68
2022/09/04 00:54:51;;;;;;;8.93;6.97;;;10.90;99.90;;;;;;8364534;28;20182;-67
2022/09/04 00:59:34;;;;;;;9.00;6.43;;;11.00;99.90;;;;;;8348579;28;20198;-67
2022/09/04 01:04:00;;;;;;;6.53;5.60;;;11.00;99.90;;;;;;8351399;28;20192;-67
2022/09/04 01:08:13;;;;;;;7.30;5.37;;;10.80;99.90;;;;;;8348069;28;20234;-68
2022/09/04 01:12:31;;;;;;;9.73;6.70;;;10.70;99.90;;;;;;8345339;28;20205;-67
2022/09/04 01:17:08;;;;;;;9.30;7.33;;;10.50;99.90;;;;;;8380493;28;20194;-67
2022/09/04 01:21:13;;;;;;;8.67;6.77;;;10.50;99.90;;;;;;8345339;28;20197;-67
2022/09/04 01:25:33;;;;;;;10.57;8.40;;;10.50;99.90;;;;;;8348914;28;20268;-67
2022/09/04 01:30:12;;;;;;;11.17;7.47;;;10.50;99.90;;;;;;8355716;28;20246;-67
2022/09/04 01:34:42;;;;;;;10.43;7.90;;;10.50;99.90;;;;;;8362134;28;20188;-68
2022/09/04 01:38:56;;;;;;;10.30;7.93;;;10.50;99.90;;;;;;8330991;28;20223;-67
2022/09/04 01:43:01;;;;;;;11.47;7.73;;;10.50;99.90;;;;;;8351841;28;20214;-68
2022/09/04 01:47:31;;;;;;;9.40;7.57;;;10.70;99.90;;;;;;8347141;28;20554;-68
2022/09/04 01:51:38;;;;;;;8.90;7.57;;;10.80;99.90;;;;;;8362689;28;20194;-68
2022/09/04 01:55:46;;;;;;;10.40;7.80;;;11.00;99.90;;;;;;8345832;28;20217;-68
2022/09/04 02:00:09;;;;;;;9.80;7.57;;;11.00;99.90;;;;;;8350224;28;20264;-68
2022/09/04 02:04:30;;;;;;;9.07;7.00;;;11.10;99.90;;;;;;8349520;28;20207;-68
2022/09/04 02:08:46;;;;;;;8.47;7.07;;;11.00;99.90;;;;;;8372741;28;20197;-69
2022/09/04 02:12:52;;;;;;;10.17;6.33;;;11.00;99.90;;;;;;8346089;28;20289;-69
2022/09/04 02:16:55;;;;;;;7.93;6.70;;;10.90;99.90;;;;;;8350463;28;20195;-67
2022/09/04 02:21:03;;;;;;;8.70;6.77;;;10.90;99.90;;;;;;8344936;28;21391;-68
2022/09/04 02:25:22;;;;;;;7.00;6.30;;;10.80;99.90;;;;;;8364225;28;20201;-67
2022/09/04 02:29:52;;;;;;;9.60;6.67;;;10.70;99.90;;;;;;8347267;28;20180;-67
2022/09/04 02:34:05;;;;;;;8.93;6.90;;;10.60;99.90;;;;;;8360648;28;20205;-67
2022/09/04 02:38:37;;;;;;;9.47;7.20;;;10.60;99.90;;;;;;8345012;28;20186;-67
2022/09/04 02:42:41;;;;;;;7.53;6.17;;;10.50;99.90;;;;;;8358785;28;20190;-67
2022/09/04 02:47:15;;;;;;;9.27;6.37;;;10.50;99.90;;;;;;8350603;28;20271;-67
2022/09/04 02:51:41;;;;;;;8.53;5.87;;;10.20;99.90;;;;;;8344350;28;20189;-67
2022/09/04 02:56:18;;;;;;;6.93;5.93;;;10.00;99.90;;;;;;8344455;28;20243;-67
2022/09/04 03:00:21;;;;;;;7.17;5.97;;;9.80;99.90;;;;;;8343122;28;20212;-68
2022/09/04 03:04:30;;;;;;;8.23;5.93;;;9.70;99.90;;;;;;8342541;28;20212;-69
2022/09/04 03:08:44;;;;;;;8.07;6.03;;;9.50;99.90;;;;;;8346459;28;20186;-68
2022/09/04 03:12:54;;;;;;;8.00;5.93;;;9.50;99.90;;;;;;8346549;28;20252;-67
2022/09/04 03:17:01;;;;;;;6.00;5.40;;;9.30;99.90;;;;;;8329322;28;20204;-67
2022/09/04 03:21:22;;;;;;;7.57;5.80;;;9.20;99.90;;;;;;8360800;28;20299;-67
2022/09/04 03:25:46;;;;;;;7.43;6.10;;;9.10;99.90;;;;;;8344380;28;20202;-67
2022/09/04 03:30:09;;;;;;;7.20;6.50;;;9.00;99.90;;;;;;8341451;28;20185;-68
2022/09/04 03:34:52;;;;;;;7.50;6.30;;;9.00;99.90;;;;;;8353964;28;20209;-67
2022/09/04 03:38:53;;;;;;;8.67;7.00;;;9.00;99.90;;;;;;8376487;28;20209;-67
2022/09/04 03:43:16;;;;;;;8.13;6.90;;;9.00;99.90;;;;;;8349392;28;20193;-67
2022/09/04 03:47:23;;;;;;;8.27;7.33;;;9.00;99.90;;;;;;8333565;28;20224;-67
2022/09/04 03:51:26;;;;;;;8.00;6.73;;;9.10;99.90;;;;;;8375020;28;20194;-68
2022/09/04 03:55:40;;;;;;;8.13;6.77;;;9.20;99.90;;;;;;8335166;28;20273;-67
2022/09/04 04:00:21;;;;;;;7.47;6.67;;;9.30;99.90;;;;;;8343819;28;20186;-67
2022/09/04 04:04:21;;;;;;;9.63;8.03;;;9.40;99.90;;;;;;8355636;28;20309;-68
2022/09/04 04:08:34;;;;;;;7.97;7.13;;;9.50;99.90;;;;;;8342482;28;20190;-69
2022/09/04 04:13:12;;;;;;;9.93;7.27;;;9.60;99.90;;;;;;8343067;28;20230;-68
2022/09/04 04:17:44;;;;;;;12.87;10.63;;;9.70;99.90;;;;;;8345259;28;20269;-68
2022/09/04 04:21:57;;;;;;;10.60;9.50;;;9.90;99.90;;;;;;8339999;28;20193;-68
2022/09/04 04:26:26;;;;;;;10.10;8.10;;;10.00;99.90;;;;;;8352652;28;20214;-68
2022/09/04 04:30:41;;;;;;;7.43;6.63;;;10.20;99.90;;;;;;8345149;28;20553;-69
2022/09/04 04:35:03;;;;;;;7.43;5.90;;;10.30;99.90;;;;;;8373086;28;20202;-69
2022/09/04 04:39:23;;;;;;;10.30;7.47;;;10.40;99.90;;;;;;8333910;28;20272;-68
2022/09/04 04:43:49;;;;;;;9.80;8.23;;;10.40;99.90;;;;;;8363837;28;20196;-68
2022/09/04 04:48:07;;;;;;;10.70;8.40;;;10.40;99.90;;;;;;8350207;28;20236;-69
2022/09/04 04:52:18;;;;;;;9.87;8.03;;;10.50;99.90;;;;;;8344576;28;20214;-68
2022/09/04 04:56:27;;;;;;;9.73;8.13;;;10.60;99.90;;;;;;8349399;28;20191;-68
2022/09/04 05:00:39;;;;;;;8.87;7.10;;;10.60;99.90;;;;;;8349515;28;20191;-67
2022/09/04 05:05:04;;;;;;;10.53;7.87;;;10.70;99.90;;;;;;8345184;28;20244;-68
2022/09/04 05:09:34;;;;;;;9.77;8.73;;;10.70;99.90;;;;;;8344707;28;20210;-69
2022/09/04 05:13:56;;;;;;;14.20;8.47;;;10.70;99.90;;;;;;8373741;28;20223;-68
2022/09/04 05:18:08;;;;;;;9.67;8.27;;;10.90;99.90;;;;;;8346545;28;20201;-69
2022/09/04 05:22:19;;;;;;;9.60;7.83;;;11.10;99.90;;;;;;8346496;28;20243;-68
2022/09/04 05:26:35;;;;;;;10.63;8.23;;;11.30;99.90;;;;;;8351655;28;20211;-68
2022/09/04 05:30:46;;;;;;;9.93;8.40;;;11.50;99.90;;;;;;8377603;28;20184;-68
2022/09/04 05:34:52;;;;;;;10.13;8.27;;;11.80;99.90;;;;;;8366034;28;20197;-69
2022/09/04 05:38:56;;;;;;;10.17;7.70;;;12.00;99.90;;;;;;8363066;28;20246;-69
2022/09/04 05:43:24;;;;;;;8.07;6.80;;;12.20;99.90;;;;;;8363857;28;20189;-69
2022/09/04 05:47:37;;;;;;;8.67;6.77;;;12.50;99.90;;;;;;8345784;28;20240;-69
2022/09/04 05:51:59;;;;;;;7.90;7.10;;;12.70;99.90;;;;;;8345539;28;20238;-69
2022/09/04 05:56:13;;;;;;;8.43;6.30;;;12.90;99.90;;;;;;8345642;28;20194;-68
2022/09/04 06:00:17;;;;;;;8.43;6.27;;;13.00;99.90;;;;;;8373379;28;20185;-68
2022/09/04 06:04:55;;;;;;;9.43;6.50;;;13.20;99.90;;;;;;8347200;28;20256;-68
2022/09/04 06:09:19;;;;;;;10.00;6.57;;;13.30;99.90;;;;;;8349425;28;20177;-68
2022/09/04 06:13:28;;;;;;;9.17;6.50;;;13.40;99.90;;;;;;8344459;28;20201;-68
2022/09/04 06:17:36;;;;;;;8.03;6.30;;;13.50;99.90;;;;;;8346235;28;20193;-69
2022/09/04 06:22:15;;;;;;;9.90;6.53;;;13.70;99.90;;;;;;8347763;28;20182;-73
2022/09/04 06:26:34;;;;;;;8.90;6.43;;;13.70;99.90;;;;;;8344245;28;20226;-69
2022/09/04 06:31:02;;;;;;;7.63;6.40;;;14.00;99.90;;;;;;8336594;28;20190;-69
2022/09/04 06:35:45;;;;;;;8.53;6.37;;;14.20;99.90;;;;;;8349390;28;20185;-69
2022/09/04 06:40:09;;;;;;;7.53;6.50;;;14.40;99.90;;;;;;8339366;28;20198;-70
2022/09/04 06:44:46;;;;;;;9.67;6.97;;;14.60;2.00;;;;;;8356292;28;20189;-67
2022/09/04 06:49:04;;;;;;;7.33;6.20;;;14.80;1.00;;;;;;8359703;28;20222;-68
2022/09/04 06:53:14;;;;;;;9.10;6.37;;;15.00;99.90;;;;;;8343594;28;20182;-68
2022/09/04 06:57:49;;;;;;;8.33;6.10;;;15.20;99.90;;;;;;8340231;28;20240;-69
2022/09/04 07:02:27;;;;;;;8.00;5.57;;;15.30;1.00;;;;;;8335183;28;20182;-68
2022/09/04 07:06:31;;;;;;;8.23;7.27;;;15.50;1.00;;;;;;8344659;28;20206;-68
2022/09/04 07:10:43;;;;;;;6.93;6.07;;;15.60;99.90;;;;;;8353843;28;20247;-68
2022/09/04 07:14:53;;;;;;;7.70;6.27;;;15.70;99.90;;;;;;8344717;28;20194;-68
2022/09/04 07:19:42;;;;;;;7.83;6.10;;;15.80;99.90;;;;;;8335511;28;20200;-68
2022/09/04 07:24:03;;;;;;;8.27;6.57;;;16.00;99.90;;;;;;8337832;28;20217;-68
2022/09/04 07:28:22;;;;;;;10.93;6.10;;;16.10;54.20;;;;;;8344443;28;20182;-68
2022/09/04 07:32:58;;;;;;;9.03;6.07;;;16.20;80.90;;;;;;8338687;28;20208;-68
2022/09/04 07:37:10;;;;;;;8.67;6.30;;;16.30;1.00;;;;;;8360987;28;20189;-68
2022/09/04 07:41:27;;;;;;;7.00;5.67;;;16.50;1.00;;;;;;8375714;28;20189;-67
2022/09/04 07:45:38;;;;;;;8.60;6.17;;;16.50;99.90;;;;;;8344141;28;20209;-67
2022/09/04 07:50:02;;;;;;;6.60;5.83;;;16.50;1.00;;;;;;8336758;28;20177;-67
2022/09/04 07:54:18;;;;;;;7.23;5.43;;;16.60;99.90;;;;;;8344888;28;20178;-68
2022/09/04 07:58:37;;;;;;;7.43;5.40;;;16.80;99.90;;;;;;8342002;28;20178;-67
2022/09/04 08:02:57;;;;;;;6.03;5.30;;;17.00;99.90;;;;;;8336015;28;20296;-67
2022/09/04 08:07:01;;;;;;;8.33;4.70;;;17.20;99.90;;;;;;8345781;28;20214;-68
2022/09/04 08:11:02;;;;;;;7.10;5.40;;;17.40;95.60;;;;;;8346373;28;20182;-68
2022/09/04 08:15:23;;;;;;;6.50;5.33;;;17.40;99.90;;;;;;8345729;28;20191;-68
2022/09/04 08:19:48;;;;;;;6.23;5.30;;;17.60;99.90;;;;;;8365482;28;20197;-68
2022/09/04 08:24:25;;;;;;;6.93;5.17;;;17.80;31.20;;;;;;8357423;28;20187;-68
2022/09/04 08:28:43;;;;;;;10.37;5.57;;;17.90;1.00;;;;;;8348700;28;20181;-68
2022/09/04 08:33:21;;;;;;;12.73;5.77;;;18.10;1.00;;;;;;8341555;28;20277;-68
2022/09/04 08:37:38;;;;;;;6.33;5.03;;;18.30;1.00;;;;;;8347698;28;20182;-68
2022/09/04 08:42:06;;;;;;;7.10;4.97;;;18.40;1.00;;;;;;8348544;28;20186;-69
2022/09/04 08:46:28;;;;;;;8.23;5.50;;;18.60;1.00;;;;;;8348429;28;20759;-68
2022/09/04 08:50:51;;;;;;;7.07;5.37;;;18.80;1.00;;;;;;8353993;28;20230;-68
2022/09/04 08:54:56;;;;;;;7.33;5.47;;;18.90;99.90;;;;;;8359478;28;20182;-72
2022/09/04 08:59:43;;;;;;;8.13;6.23;;;19.00;99.90;;;;;;8341322;28;20190;-69
2022/09/04 09:03:56;;;;;;;6.97;5.07;;;19.20;99.90;;;;;;8353934;28;20199;-68
2022/09/04 09:07:59;;;;;;;5.90;5.30;;;19.30;99.90;;;;;;8348249;28;20240;-71
2022/09/04 09:12:34;;;;;;;5.53;4.90;;;19.40;99.90;;;;;;8347439;28;20494;-68
2022/09/04 09:16:42;;;;;;;5.70;4.47;;;19.70;99.90;;;;;;8347491;28;20584;-68
2022/09/04 09:21:00;;;;;;;7.00;4.60;;;19.80;99.90;;;;;;8348331;28;20644;-68
2022/09/04 09:25:31;;;;;;;6.97;4.60;;;19.80;99.90;;;;;;8342220;28;20205;-68
2022/09/04 09:29:38;;;;;;;5.67;4.97;;;19.80;99.90;;;;;;8344472;28;20193;-68
2022/09/04 09:33:48;;;;;;;6.77;4.77;;;19.60;99.90;;;;;;8345595;28;20197;-67
2022/09/04 09:37:52;;;;;;;7.67;4.73;;;19.50;99.90;;;;;;8349466;28;20182;-67
2022/09/04 09:41:59;;;;;;;4.77;4.27;;;19.70;99.90;;;;;;8337535;28;20186;-68
2022/09/04 09:46:37;;;;;;;6.93;4.80;;;20.10;99.90;;;;;;8335969;28;20210;-67
2022/09/04 09:51:02;;;;;;;5.10;4.40;;;20.40;99.90;;;;;;8345294;28;20174;-67
2022/09/04 09:55:09;;;;;;;5.17;4.37;;;20.70;99.90;;;;;;8344555;28;20186;-67
2022/09/04 09:59:28;;;;;;;4.83;3.70;;;21.00;99.90;;;;;;8347185;28;20186;-67
2022/09/04 10:03:38;;;;;;;6.00;4.20;;;21.40;87.40;;;;;;8359974;28;20188;-69
2022/09/04 10:08:12;;;;;;;5.83;4.27;;;21.70;54.50;;;;;;8346652;28;20300;-69
2022/09/04 10:12:32;;;;;;;5.33;3.93;;;21.70;64.20;;;;;;8341948;28;20205;-67
2022/09/04 10:16:51;;;;;;;7.23;4.50;;;21.80;56.60;;;;;;8343243;28;20274;-68
2022/09/04 10:21:11;;;;;;;4.97;3.77;;;21.80;50.40;;;;;;8361037;28;20264;-64
2022/09/04 10:25:36;;;;;;;4.00;3.47;;;21.90;55.80;;;;;;8349646;28;20221;-67
2022/09/04 10:30:05;;;;;;;5.17;3.80;;;21.80;46.80;;;;;;8335553;28;20229;-68
2022/09/04 10:34:49;;;;;;;5.10;4.10;;;21.70;41.50;;;;;;8328399;28;20185;-66
2022/09/04 10:43:39;;;;;;;4.30;3.63;;;21.60;69.50;;;;;;8345056;28;20188;-68
2022/09/04 10:48:06;;;;;;;4.50;3.90;;;21.50;62.60;;;;;;8357958;28;20241;-68
2022/09/04 10:52:20;;;;;;;4.23;3.43;;;21.50;76.40;;;;;;8343625;28;20205;-67
2022/09/04 10:56:48;;;;;;;6.40;3.77;;;21.60;70.70;;;;;;8347047;28;20182;-69
2022/09/04 11:01:21;;;;;;;4.80;3.77;;;21.60;90.10;;;;;;8343445;28;20174;-68
2022/09/04 11:05:50;;;;;;;4.30;3.53;;;21.60;72.70;;;;;;8372053;28;20279;-68
2022/09/04 11:10:12;;;;;;;4.23;3.50;;;21.70;62.80;;;;;;8343833;28;20268;-68
2022/09/04 11:14:52;;;;;;;4.27;3.87;;;21.70;78.60;;;;;;8336387;28;20250;-68
2022/09/04 11:19:09;;;;;;;4.30;3.47;;;21.90;63.10;;;;;;8344521;28;20543;-68
2022/09/04 11:23:34;;;;;;;4.90;3.77;;;22.00;58.10;;;;;;8361986;28;20182;-68
2022/09/04 11:27:57;;;;;;;4.23;3.30;;;22.10;51.70;;;;;;8337161;28;20201;-68
2022/09/04 11:32:37;;;;;;;4.07;3.67;;;22.30;49.40;;;;;;8344665;28;20201;-68
2022/09/04 11:36:59;;;;;;;4.10;3.20;;;22.40;16.40;;;;;;8346565;28;20253;-67
2022/09/04 11:41:46;;;;;;;4.33;3.70;;;22.30;28.70;;;;;;8353100;28;20247;-68
2022/09/04 11:46:11;;;;;;;4.60;3.13;;;22.40;9.40;;;;;;8338386;28;20275;-67
2022/09/04 11:50:40;;;;;;;5.80;3.53;;;22.60;19.60;;;;;;8346213;28;20232;-68
2022/09/04 11:54:50;;;;;;;4.60;3.27;;;22.80;9.50;;;;;;8343565;28;20200;-67
2022/09/04 11:59:43;;;;;;;3.60;3.20;;;23.00;1.00;;;;;;8343955;28;20182;-66
2022/09/04 12:03:48;;;;;;;5.10;3.20;;;23.20;1.00;;;;;;8329713;28;20229;-74
2022/09/04 12:08:08;;;;;;;4.20;2.77;;;23.10;1.00;;;;;;8363103;28;20294;-67
2022/09/04 12:13:06;;;;;;;4.40;3.57;;;22.90;1.00;;;;;;8347389;28;20194;-68
2022/09/04 12:17:37;;;;;;;3.83;3.07;;;22.90;1.00;;;;;;8356405;28;20209;-66
2022/09/04 12:21:47;;;;;;;4.27;3.60;;;23.30;1.00;;;;;;8344795;28;20225;-67
2022/09/04 12:26:06;;;;;;;3.93;3.23;;;23.60;1.00;;;;;;8343920;28;20210;-68
2022/09/04 12:30:19;;;;;;;3.27;2.97;;;23.70;1.00;;;;;;8344322;28;20590;-67
2022/09/04 12:34:39;;;;;;;4.17;2.97;;;23.80;1.00;;;;;;8358920;28;20689;-68
2022/09/04 12:39:27;;;;;;;3.47;3.13;;;23.90;1.00;;;;;;8346402;28;20182;-68
2022/09/04 12:43:28;;;;;;;4.50;3.53;;;23.90;1.00;;;;;;8342859;28;20193;-67
2022/09/04 12:47:44;;;;;;;5.47;3.00;;;24.20;1.00;;;;;;8344463;28;20214;-67
2022/09/04 12:52:04;;;;;;;3.70;3.30;;;24.30;1.00;;;;;;8343504;28;20610;-68
2022/09/04 12:56:14;;;;;;;3.20;2.90;;;24.30;1.00;;;;;;8346247;28;20186;-67
2022/09/04 13:00:16;;;;;;;3.63;2.70;;;24.30;1.00;;;;;;8341919;28;20190;-66
2022/09/04 13:04:27;;;;;;;4.70;2.87;;;24.30;1.00;;;;;;8345319;28;20186;-67
2022/09/04 13:08:39;;;;;;;4.70;3.23;;;24.20;1.00;;;;;;8347886;28;20281;-69
2022/09/04 13:13:04;;;;;;;3.17;2.53;;;24.30;1.00;;;;;;8351071;28;20230;-68
2022/09/04 13:17:29;;;;;;;3.03;2.73;;;24.40;1.00;;;;;;8363220;28;20194;-68
2022/09/04 13:21:54;;;;;;;2.57;2.37;;;24.30;1.00;;;;;;8351783;28;20205;-68
2022/09/04 13:26:04;;;;;;;3.27;2.97;;;24.20;1.00;;;;;;8349637;28;20284;-67
2022/09/04 13:30:23;;;;;;;3.37;2.83;;;24.00;1.00;;;;;;8349692;28;20187;-68
2022/09/04 13:34:39;;;;;;;4.60;2.70;;;23.80;1.00;;;;;;8353527;28;20248;-69
2022/09/04 13:39:01;;;;;;;4.27;2.53;;;23.90;1.00;;;;;;8346168;28;20655;-67
2022/09/04 13:43:29;;;;;;;2.63;2.27;;;24.00;1.00;;;;;;8363674;28;20181;-68
2022/09/04 13:47:37;;;;;;;3.00;2.33;;;24.20;1.00;;;;;;8344535;28;20213;-66
2022/09/04 13:51:45;;;;;;;3.77;3.37;;;24.40;1.00;;;;;;8343624;28;20189;-65
2022/09/04 13:55:53;;;;;;;2.50;2.30;;;24.60;1.00;;;;;;8345631;28;20254;-66
2022/09/04 14:00:01;;;;;;;2.73;2.40;;;24.60;1.00;;;;;;8358941;28;20191;-67
2022/09/04 14:04:10;;;;;;;3.37;2.50;;;24.70;1.00;;;;;;8345243;28;20193;-66
2022/09/04 14:08:19;;;;;;;2.40;2.10;;;24.60;1.00;;;;;;8348014;28;20373;-66
2022/09/04 14:12:54;;;;;;;2.40;2.10;;;24.50;1.00;;;;;;8348981;28;20206;-67
2022/09/04 14:16:57;;;;;;;3.23;1.83;;;24.60;1.00;;;;;;8333003;28;20198;-68
2022/09/04 14:21:11;;;;;;;2.20;1.97;;;24.50;1.00;;;;;;8344255;28;20208;-66
2022/09/04 14:25:16;;;;;;;3.40;2.03;;;24.30;1.00;;;;;;8336182;28;20201;-67
2022/09/04 14:29:53;;;;;;;2.47;2.00;;;24.20;1.00;;;;;;8343757;28;20192;-67
2022/09/04 14:34:13;;;;;;;1.50;1.40;;;24.20;1.00;;;;;;8373232;28;20194;-67
2022/09/04 14:38:14;;;;;;;2.70;1.80;;;24.20;1.00;;;;;;8346029;28;20192;-65
2022/09/04 14:42:41;;;;;;;3.60;1.97;;;24.20;1.00;;;;;;8348170;28;20194;-66
2022/09/04 14:47:31;;;;;;;2.10;1.90;;;24.00;1.00;;;;;;8347854;28;20210;-67
2022/09/04 14:51:38;;;;;;;2.47;2.07;;;23.80;1.00;;;;;;8335375;28;20334;-66
2022/09/04 14:56:00;;;;;;;2.00;1.53;;;23.60;1.00;;;;;;8378554;28;20254;-64
2022/09/04 15:00:08;;;;;;;2.87;2.10;;;23.70;1.00;;;;;;8344504;28;20181;-68
2022/09/04 15:04:24;;;;;;;2.17;1.97;;;23.90;1.00;;;;;;8344933;28;20200;-67
2022/09/04 15:08:37;;;;;;;2.00;1.60;;;24.30;1.00;;;;;;8348221;28;20480;-66
2022/09/04 15:12:41;;;;;;;2.67;1.73;;;24.60;1.00;;;;;;8345284;28;20202;-67
2022/09/04 15:16:48;;;;;;;2.03;1.83;;;24.60;1.00;;;;;;8346279;28;20190;-66
2022/09/04 15:21:27;;;;;;;2.03;1.73;;;24.70;1.00;;;;;;8349252;28;20542;-67
2022/09/04 15:25:47;;;;;;;2.03;1.70;;;24.60;1.00;;;;;;8337487;28;20202;-67
2022/09/04 15:29:54;;;;;;;1.93;1.50;;;24.50;1.00;;;;;;8343483;28;20182;-67
2022/09/04 15:34:20;;;;;;;1.90;1.40;;;24.30;1.00;;;;;;8358393;28;20193;-66
2022/09/04 15:38:24;;;;;;;2.10;1.63;;;24.20;1.00;;;;;;8344544;28;20182;-67
2022/09/04 15:42:45;;;;;;;2.10;1.80;;;24.10;1.00;;;;;;8342270;28;20210;-67
2022/09/04 15:47:01;;;;;;;2.30;1.83;;;24.00;1.00;;;;;;8343549;28;20222;-67
2022/09/04 15:51:25;;;;;;;1.60;1.23;;;24.00;1.00;;;;;;8345979;28;20182;-66
2022/09/04 15:55:29;;;;;;;2.43;2.17;;;23.90;1.00;;;;;;8343885;28;20169;-66
2022/09/04 15:59:42;;;;;;;3.77;1.80;;;23.70;1.00;;;;;;8358940;28;20211;-67
2022/09/04 16:04:22;;;;;;;3.23;1.63;;;23.70;1.00;;;;;;8342213;28;20189;-67
2022/09/04 16:08:37;;;;;;;2.33;1.60;;;23.60;1.00;;;;;;8353279;28;20213;-68
2022/09/04 16:12:56;;;;;;;2.90;2.37;;;23.40;1.00;;;;;;8345792;28;20205;-66
2022/09/04 16:17:26;;;;;;;1.93;1.73;;;23.20;1.00;;;;;;8342379;28;20186;-67
2022/09/04 16:21:48;;;;;;;4.27;2.73;;;22.90;1.00;;;;;;8342039;28;20189;-67
2022/09/04 16:25:50;;;;;;;2.07;1.60;;;22.70;1.00;;;;;;8352945;28;20255;-67
2022/09/04 16:30:01;;;;;;;1.87;1.60;;;22.50;1.00;;;;;;8345606;28;20182;-66
2022/09/04 16:34:11;;;;;;;2.37;1.97;;;22.20;1.00;;;;;;8355240;28;20178;-67
2022/09/04 16:38:18;;;;;;;5.27;1.87;;;22.10;1.00;;;;;;8336356;28;20189;-67
2022/09/04 16:42:48;;;;;;;2.33;1.90;;;21.90;1.00;;;;;;8354006;28;20216;-67
2022/09/04 16:47:01;;;;;;;1.77;1.60;;;21.70;1.00;;;;;;8379295;28;20214;-66
2022/09/04 16:51:23;;;;;;;1.80;1.70;;;21.50;17.50;;;;;;8346319;28;20190;-67
2022/09/04 16:55:30;;;;;;;1.87;1.67;;;21.40;38.50;;;;;;8366014;28;20185;-67
2022/09/04 16:59:38;;;;;;;2.10;1.90;;;21.10;58.50;;;;;;8352090;28;20192;-67
2022/09/04 17:04:22;;;;;;;1.77;1.30;;;20.90;82.70;;;;;;8362908;28;20185;-67
2022/09/04 17:08:34;;;;;;;2.33;2.10;;;20.70;99.90;;;;;;8372717;28;20885;-66
2022/09/04 17:13:00;;;;;;;3.43;2.57;;;20.50;99.90;;;;;;8339453;28;20206;-67
2022/09/04 17:17:20;;;;;;;3.20;2.00;;;20.20;99.90;;;;;;8363798;28;20208;-67
2022/09/04 17:26:39;;;;;;;10.47;8.70;;;19.80;99.90;;;;;;8360053;28;20297;-67
2022/09/04 17:31:00;;;;;;;12.53;10.30;;;19.50;99.90;;;;;;8363675;28;20269;-67
2022/09/04 17:35:24;;;;;;;9.60;7.73;;;19.30;99.90;;;;;;8347364;28;20174;-67
2022/09/04 17:39:35;;;;;;;6.53;4.97;;;19.00;99.90;;;;;;8338879;28;20255;-67
2022/09/04 17:44:02;;;;;;;3.97;3.30;;;18.80;99.90;;;;;;8350908;28;20271;-66
2022/09/04 17:48:25;;;;;;;3.70;3.30;;;18.60;1.00;;;;;;8342101;28;20228;-67
2022/09/04 17:52:52;;;;;;;2.87;2.60;;;18.30;1.00;;;;;;8351191;28;20185;-66
2022/09/04 17:56:56;;;;;;;2.80;2.20;;;18.20;1.00;;;;;;8347854;28;20251;-66
2022/09/04 18:01:32;;;;;;;3.50;2.73;;;17.90;34.90;;;;;;8344245;28;20182;-67
2022/09/04 18:05:38;;;;;;;3.10;2.80;;;17.50;99.90;;;;;;8345497;28;20205;-67
2022/09/04 18:10:22;;;;;;;2.70;2.47;;;17.30;99.90;;;;;;8348019;28;20185;-68
2022/09/04 18:15:04;;;;;;;3.83;2.83;;;17.10;1.00;;;;;;8350364;28;20600;-68
2022/09/04 18:19:13;;;;;;;3.57;3.00;;;16.80;1.00;;;;;;8347428;28;20224;-67
2022/09/04 18:23:48;;;;;;;5.03;3.23;;;16.60;99.90;;;;;;8360650;28;20186;-67
2022/09/04 18:28:10;;;;;;;3.17;2.87;;;16.40;1.00;;;;;;8337808;28;20233;-67
2022/09/04 18:32:30;;;;;;;3.00;2.30;;;16.20;1.00;;;;;;8364025;28;20388;-69
2022/09/04 18:36:53;;;;;;;2.93;2.20;;;15.90;1.00;;;;;;8345670;28;20186;-67
2022/09/04 18:40:59;;;;;;;2.63;1.87;;;15.70;99.90;;;;;;8343648;28;20182;-67
2022/09/04 18:45:15;;;;;;;2.60;2.23;;;15.50;99.90;;;;;;8344138;28;20212;-67
2022/09/04 18:49:21;;;;;;;2.67;2.27;;;15.40;99.90;;;;;;8360388;28;20364;-67
2022/09/04 18:53:37;;;;;;;2.50;2.03;;;15.30;99.90;;;;;;8345160;28;20189;-68
2022/09/04 18:57:52;;;;;;;2.40;2.20;;;15.10;1.00;;;;;;8344779;28;20182;-68
2022/09/04 19:02:19;;;;;;;2.43;2.13;;;15.10;1.00;;;;;;8346200;28;20192;-67
2022/09/04 19:06:44;;;;;;;2.23;2.03;;;15.00;56.30;;;;;;8344296;28;20212;-68
2022/09/04 19:11:08;;;;;;;2.93;2.40;;;14.90;99.90;;;;;;8343903;28;20433;-67
2022/09/04 19:15:21;;;;;;;2.40;2.17;;;14.80;99.90;;;;;;8341877;28;20184;-67
2022/09/04 19:19:31;;;;;;;4.83;2.57;;;14.70;99.90;;;;;;8347396;28;20597;-69
2022/09/04 19:23:33;;;;;;;2.47;2.00;;;14.70;1.00;;;;;;8334352;28;20588;-68
2022/09/04 19:27:46;;;;;;;3.83;2.60;;;14.60;2.70;;;;;;8353979;28;20266;-68
2022/09/04 19:31:58;;;;;;;2.20;2.00;;;14.60;99.90;;;;;;8358575;28;20213;-68
2022/09/04 19:36:29;;;;;;;2.43;2.00;;;14.50;99.90;;;;;;8346062;28;20189;-68
2022/09/04 19:40:42;;;;;;;3.00;2.23;;;14.40;99.90;;;;;;8344278;28;20189;-68
2022/09/04 19:44:53;;;;;;;2.50;1.97;;;14.30;99.90;;;;;;8340225;28;20182;-69
2022/09/04 19:49:00;;;;;;;3.13;2.70;;;14.20;1.00;;;;;;8359042;28;20216;-69
2022/09/04 19:53:27;;;;;;;2.40;2.10;;;14.10;1.00;;;;;;8361282;28;20209;-69
2022/09/04 19:57:44;;;;;;;2.57;2.20;;;14.00;5.80;;;;;;8359415;28;20225;-69
2022/09/04 20:01:53;;;;;;;2.00;1.80;;;13.90;99.90;;;;;;8345643;28;20186;-68
2022/09/04 20:06:15;;;;;;;2.70;2.50;;;13.70;99.90;;;;;;8345021;28;20252;-68
2022/09/04 20:10:30;;;;;;;2.70;2.47;;;13.70;99.90;;;;;;8353498;28;20177;-68
2022/09/04 20:14:44;;;;;;;2.30;2.07;;;13.60;1.00;;;;;;8352272;28;20224;-68
2022/09/04 20:18:59;;;;;;;4.00;2.63;;;13.50;99.90;;;;;;8347863;28;20204;-67
2022/09/04 20:23:20;;;;;;;2.57;2.30;;;13.40;99.90;;;;;;8348505;28;20182;-68
2022/09/04 20:27:28;;;;;;;3.20;2.77;;;13.30;1.00;;;;;;8345064;28;20267;-68
2022/09/04 20:31:39;;;;;;;3.50;3.20;;;13.30;46.40;;;;;;8351662;28;20178;-68
2022/09/04 20:35:49;;;;;;;4.63;3.10;;;13.20;99.90;;;;;;8349058;28;20182;-68
2022/09/04 20:40:02;;;;;;;3.10;2.77;;;13.10;99.90;;;;;;8352335;28;20225;-69
2022/09/04 20:44:18;;;;;;;5.40;3.40;;;13.00;4.00;;;;;;8347247;28;20236;-68
2022/09/04 20:48:41;;;;;;;3.43;2.80;;;13.00;99.90;;;;;;8357885;28;20201;-69
2022/09/04 20:53:26;;;;;;;4.37;3.00;;;12.90;99.90;;;;;;8343428;28;20190;-69
2022/09/04 20:57:52;;;;;;;3.67;3.20;;;12.90;99.90;;;;;;8332755;28;20186;-69
2022/09/04 21:02:17;;;;;;;3.30;2.50;;;12.80;99.90;;;;;;8345585;28;20178;-68
2022/09/04 21:06:29;;;;;;;3.67;3.00;;;12.70;1.00;;;;;;8339490;28;20304;-67
2022/09/04 21:10:33;;;;;;;4.17;3.50;;;12.70;1.70;;;;;;8365115;28;20289;-67
2022/09/04 21:14:39;;;;;;;3.73;3.20;;;12.70;10.70;;;;;;8342485;28;20198;-68
2022/09/04 21:18:58;;;;;;;3.97;3.40;;;12.60;1.00;;;;;;8347468;28;20218;-67
2022/09/04 21:23:07;;;;;;;5.03;3.30;;;12.60;1.00;;;;;;8348701;28;20239;-67
2022/09/04 21:27:17;;;;;;;3.57;3.17;;;12.60;99.90;;;;;;8339383;28;20210;-67
2022/09/04 21:31:50;;;;;;;3.97;3.37;;;12.60;1.00;;;;;;8347520;28;20182;-68
2022/09/04 21:36:25;;;;;;;3.40;3.07;;;12.50;1.00;;;;;;8347062;28;20181;-68
2022/09/04 21:41:02;;;;;;;3.27;2.97;;;12.50;99.90;;;;;;8361822;28;20185;-68
2022/09/04 21:45:30;;;;;;;3.57;2.97;;;12.40;40.90;;;;;;8343706;28;20225;-68
2022/09/04 21:49:43;;;;;;;3.10;2.63;;;12.30;26.30;;;;;;8345371;28;20268;-68
2022/09/04 21:53:44;;;;;;;3.57;3.00;;;12.20;99.90;;;;;;8363013;28;20182;-68
2022/09/04 21:58:17;;;;;;;3.77;3.07;;;12.20;99.90;;;;;;8338296;28;20185;-68
2022/09/04 22:02:30;;;;;;;4.00;3.20;;;12.20;99.90;;;;;;8343656;28;20181;-68
2022/09/04 22:06:41;;;;;;;3.70;3.37;;;12.20;99.90;;;;;;8352880;28;20447;-68
2022/09/04 22:11:10;;;;;;;3.80;3.47;;;12.40;9.60;;;;;;8349554;28;20178;-68
2022/09/04 22:15:18;;;;;;;3.30;2.87;;;12.50;99.90;;;;;;8360765;28;20193;-69
2022/09/04 22:19:31;;;;;;;3.87;3.30;;;12.60;1.00;;;;;;8337528;28;20208;-68
2022/09/04 22:24:22;;;;;;;4.50;3.83;;;12.70;52.00;;;;;;8347334;28;20186;-68
2022/09/04 22:28:35;;;;;;;3.70;3.40;;;12.70;1.00;;;;;;8341096;28;20252;-68
2022/09/04 22:32:58;;;;;;;3.80;3.40;;;12.70;1.00;;;;;;8366342;28;20194;-68
2022/09/04 22:37:26;;;;;;;3.73;3.40;;;12.60;1.00;;;;;;8347368;28;20182;-69
2022/09/04 22:42:01;;;;;;;3.63;3.10;;;12.50;1.00;;;;;;8335665;28;20223;-69
2022/09/04 22:46:26;;;;;;;3.73;3.33;;;12.40;99.90;;;;;;8346533;28;20208;-69